Terminal Aerodrome Forecast
Issued by NWS Blacksburg, VA

Current Version | Previous Version | Text Only | Print | Product List | Glossary Off
Versions: 1 2 3 4 5 6 7 8 9 10 11 12 13 14 15 16 17 18 19 20 21 22 23 24 25 26 27 28 29 30 31 32 33 34 35 36 37 38 39 40

686
FTUS41 KRNK 212320
TAFBLF
TAF
KBLF 212320Z 2200/2224 25007KT P6SM SCT040
     FM221700 VRB03KT P6SM BKN080
     FM222100 23007KT P6SM OVC050
     FM222300 22009KT P6SM OVC030=

USA.gov is the U.S. government's official web portal to all federal, state and local government web resources and services.